sensor_id;sensor_type;location;lat;lon;timestamp;pressure;altitude;pressure_sealevel;temperature;humidity
69127;BME280;56688;50.234;19.292;2024-02-21T00:00:47;99198.44;;;5.61;83.91
69127;BME280;56688;50.234;19.292;2024-02-21T00:03:14;99200.87;;;5.64;83.80
69127;BME280;56688;50.234;19.292;2024-02-21T00:05:41;99196.75;;;5.65;83.35
69127;BME280;56688;50.234;19.292;2024-02-21T00:08:08;99192.91;;;5.60;83.35
69127;BME280;56688;50.234;19.292;2024-02-21T00:10:35;99195.23;;;5.54;83.37
69127;BME280;56688;50.234;19.292;2024-02-21T00:13:03;99199.05;;;5.47;83.29
69127;BME280;56688;50.234;19.292;2024-02-21T00:15:30;99202.09;;;5.41;83.61
69127;BME280;56688;50.234;19.292;2024-02-21T00:17:57;99200.27;;;5.38;83.61
69127;BME280;56688;50.234;19.292;2024-02-21T00:20:24;99199.13;;;5.36;83.78
69127;BME280;56688;50.234;19.292;2024-02-21T00:22:53;99196.60;;;5.35;84.07
69127;BME280;56688;50.234;19.292;2024-02-21T00:25:20;99191.52;;;5.34;84.08
69127;BME280;56688;50.234;19.292;2024-02-21T00:27:47;99188.96;;;5.36;84.26
69127;BME280;56688;50.234;19.292;2024-02-21T00:30:14;99182.57;;;5.36;84.25
69127;BME280;56688;50.234;19.292;2024-02-21T00:32:41;99180.34;;;5.35;84.52
69127;BME280;56688;50.234;19.292;2024-02-21T00:35:08;99176.61;;;5.34;84.68
69127;BME280;56688;50.234;19.292;2024-02-21T00:37:35;99181.17;;;5.28;84.33
69127;BME280;56688;50.234;19.292;2024-02-21T00:40:03;99185.24;;;5.22;84.21
69127;BME280;56688;50.234;19.292;2024-02-21T00:42:30;99185.38;;;5.18;84.17
69127;BME280;56688;50.234;19.292;2024-02-21T00:44:57;99183.27;;;5.15;84.71
69127;BME280;56688;50.234;19.292;2024-02-21T00:47:25;99182.15;;;5.13;84.74
69127;BME280;56688;50.234;19.292;2024-02-21T00:49:52;99181.23;;;5.16;85.17
69127;BME280;56688;50.234;19.292;2024-02-21T00:52:19;99174.36;;;5.19;85.08
69127;BME280;56688;50.234;19.292;2024-02-21T00:54:46;99170.98;;;5.23;85.22
69127;BME280;56688;50.234;19.292;2024-02-21T00:57:20;99170.30;;;5.25;85.67
69127;BME280;56688;50.234;19.292;2024-02-21T00:59:48;99166.67;;;5.26;85.64
69127;BME280;56688;50.234;19.292;2024-02-21T01:02:15;99154.90;;;5.27;85.51
69127;BME280;56688;50.234;19.292;2024-02-21T01:04:42;99150.99;;;5.25;85.48
69127;BME280;56688;50.234;19.292;2024-02-21T01:07:09;99151.04;;;5.23;85.29
69127;BME280;56688;50.234;19.292;2024-02-21T01:09:36;99148.31;;;5.22;85.37
69127;BME280;56688;50.234;19.292;2024-02-21T01:12:04;99150.95;;;5.24;85.55
69127;BME280;56688;50.234;19.292;2024-02-21T01:14:31;99150.05;;;5.26;85.75
69127;BME280;56688;50.234;19.292;2024-02-21T01:16:58;99144.86;;;5.27;85.56
69127;BME280;56688;50.234;19.292;2024-02-21T01:19:25;99147.02;;;5.28;85.47
69127;BME280;56688;50.234;19.292;2024-02-21T01:21:52;99147.14;;;5.29;85.54
69127;BME280;56688;50.234;19.292;2024-02-21T01:24:19;99142.67;;;5.29;85.54
69127;BME280;56688;50.234;19.292;2024-02-21T01:26:46;99146.91;;;5.32;85.39
69127;BME280;56688;50.234;19.292;2024-02-21T01:29:13;99140.55;;;5.32;85.12
69127;BME280;56688;50.234;19.292;2024-02-21T01:31:40;99140.66;;;5.33;85.16
69127;BME280;56688;50.234;19.292;2024-02-21T01:34:07;99142.08;;;5.32;84.95
69127;BME280;56688;50.234;19.292;2024-02-21T01:36:35;99138.27;;;5.32;84.91
69127;BME280;56688;50.234;19.292;2024-02-21T01:39:02;99134.34;;;5.34;84.74
69127;BME280;56688;50.234;19.292;2024-02-21T01:41:30;99131.55;;;5.35;84.66
69127;BME280;56688;50.234;19.292;2024-02-21T01:43:58;99129.73;;;5.34;84.54
69127;BME280;56688;50.234;19.292;2024-02-21T01:46:25;99133.26;;;5.34;84.35
69127;BME280;56688;50.234;19.292;2024-02-21T01:48:56;99123.89;;;5.28;84.44
69127;BME280;56688;50.234;19.292;2024-02-21T01:51:24;99120.02;;;5.22;84.71
69127;BME280;56688;50.234;19.292;2024-02-21T01:53:53;99119.95;;;5.21;84.86
69127;BME280;56688;50.234;19.292;2024-02-21T01:56:22;99119.20;;;5.22;85.04
69127;BME280;56688;50.234;19.292;2024-02-21T01:58:50;99119.14;;;5.23;85.20
69127;BME280;56688;50.234;19.292;2024-02-21T02:01:18;99119.89;;;5.22;85.36
69127;BME280;56688;50.234;19.292;2024-02-21T02:03:48;99115.80;;;5.24;85.29
69127;BME280;56688;50.234;19.292;2024-02-21T02:06:16;99115.50;;;5.25;85.46
69127;BME280;56688;50.234;19.292;2024-02-21T02:08:44;99112.84;;;5.27;85.24
69127;BME280;56688;50.234;19.292;2024-02-21T02:11:13;99117.80;;;5.27;85.22
69127;BME280;56688;50.234;19.292;2024-02-21T02:13:40;99115.81;;;5.24;85.07
69127;BME280;56688;50.234;19.292;2024-02-21T02:16:07;99109.48;;;5.24;85.05
69127;BME280;56688;50.234;19.292;2024-02-21T02:18:35;99108.68;;;5.23;85.14
69127;BME280;56688;50.234;19.292;2024-02-21T02:21:04;99114.19;;;5.20;85.52
69127;BME280;56688;50.234;19.292;2024-02-21T02:23:36;99113.15;;;5.18;85.14
69127;BME280;56688;50.234;19.292;2024-02-21T02:26:03;99105.70;;;5.19;85.46
69127;BME280;56688;50.234;19.292;2024-02-21T02:28:30;99107.38;;;5.20;85.43
69127;BME280;56688;50.234;19.292;2024-02-21T02:30:58;99104.48;;;5.19;85.35
69127;BME280;56688;50.234;19.292;2024-02-21T02:33:25;99099.08;;;5.16;85.42
69127;BME280;56688;50.234;19.292;2024-02-21T02:35:52;99097.88;;;5.14;85.42
69127;BME280;56688;50.234;19.292;2024-02-21T02:38:19;99097.00;;;5.11;85.45
69127;BME280;56688;50.234;19.292;2024-02-21T02:40:46;99096.92;;;5.10;85.55
69127;BME280;56688;50.234;19.292;2024-02-21T02:43:13;99094.55;;;5.09;85.68
69127;BME280;56688;50.234;19.292;2024-02-21T02:45:40;99094.20;;;5.09;85.57
69127;BME280;56688;50.234;19.292;2024-02-21T02:48:07;99092.21;;;5.10;85.47
69127;BME280;56688;50.234;19.292;2024-02-21T02:50:34;99091.04;;;5.09;85.51
69127;BME280;56688;50.234;19.292;2024-02-21T02:53:01;99090.45;;;5.10;85.44
69127;BME280;56688;50.234;19.292;2024-02-21T02:55:29;99092.05;;;5.08;85.31
69127;BME280;56688;50.234;19.292;2024-02-21T02:57:56;99088.15;;;5.06;85.37
69127;BME280;56688;50.234;19.292;2024-02-21T03:00:23;99087.20;;;5.04;85.46
69127;BME280;56688;50.234;19.292;2024-02-21T03:02:51;99080.91;;;5.04;85.49
69127;BME280;56688;50.234;19.292;2024-02-21T03:05:20;99072.30;;;5.05;85.46
69127;BME280;56688;50.234;19.292;2024-02-21T03:07:48;99068.44;;;5.05;85.49
69127;BME280;56688;50.234;19.292;2024-02-21T03:10:16;99069.51;;;5.05;85.42
69127;BME280;56688;50.234;19.292;2024-02-21T03:12:44;99072.48;;;5.06;85.62
69127;BME280;56688;50.234;19.292;2024-02-21T03:15:13;99076.50;;;5.06;85.44
69127;BME280;56688;50.234;19.292;2024-02-21T03:17:41;99084.24;;;5.08;85.36
69127;BME280;56688;50.234;19.292;2024-02-21T03:20:08;99083.52;;;5.08;85.10
69127;BME280;56688;50.234;19.292;2024-02-21T03:22:39;99080.10;;;5.11;85.09
69127;BME280;56688;50.234;19.292;2024-02-21T03:25:07;99080.20;;;5.16;85.13
69127;BME280;56688;50.234;19.292;2024-02-21T03:27:35;99077.16;;;5.22;85.04
69127;BME280;56688;50.234;19.292;2024-02-21T03:30:02;99079.00;;;5.25;84.82
69127;BME280;56688;50.234;19.292;2024-02-21T03:32:31;99078.14;;;5.28;84.86
69127;BME280;56688;50.234;19.292;2024-02-21T03:34:58;99076.20;;;5.28;84.26
69127;BME280;56688;50.234;19.292;2024-02-21T03:37:26;99075.80;;;5.27;84.42
69127;BME280;56688;50.234;19.292;2024-02-21T03:39:53;99072.98;;;5.25;84.39
69127;BME280;56688;50.234;19.292;2024-02-21T03:42:20;99078.68;;;5.26;84.27
69127;BME280;56688;50.234;19.292;2024-02-21T03:44:47;99073.33;;;5.27;84.40
69127;BME280;56688;50.234;19.292;2024-02-21T03:47:14;99073.95;;;5.24;84.49
69127;BME280;56688;50.234;19.292;2024-02-21T03:49:41;99068.77;;;5.23;84.37
69127;BME280;56688;50.234;19.292;2024-02-21T03:52:09;99067.45;;;5.18;84.19
69127;BME280;56688;50.234;19.292;2024-02-21T03:54:37;99073.84;;;5.14;84.48
69127;BME280;56688;50.234;19.292;2024-02-21T03:57:05;99078.83;;;5.11;84.48
69127;BME280;56688;50.234;19.292;2024-02-21T03:59:33;99079.18;;;5.11;84.50
69127;BME280;56688;50.234;19.292;2024-02-21T04:02:00;99076.91;;;5.13;84.57
69127;BME280;56688;50.234;19.292;2024-02-21T04:04:27;99076.33;;;5.16;84.81
69127;BME280;56688;50.234;19.292;2024-02-21T04:06:54;99075.73;;;5.14;84.90
69127;BME280;56688;50.234;19.292;2024-02-21T04:09:21;99075.09;;;5.10;84.78
69127;BME280;56688;50.234;19.292;2024-02-21T04:11:48;99077.86;;;5.07;84.92
69127;BME280;56688;50.234;19.292;2024-02-21T04:14:15;99076.00;;;5.08;85.16
69127;BME280;56688;50.234;19.292;2024-02-21T04:16:42;99075.48;;;5.09;85.40
69127;BME280;56688;50.234;19.292;2024-02-21T04:19:09;99073.25;;;5.12;85.53
69127;BME280;56688;50.234;19.292;2024-02-21T04:21:36;99079.16;;;5.17;85.59
69127;BME280;56688;50.234;19.292;2024-02-21T04:24:04;99076.10;;;5.24;85.49
69127;BME280;56688;50.234;19.292;2024-02-21T04:26:33;99077.09;;;5.28;85.48
69127;BME280;56688;50.234;19.292;2024-02-21T04:29:01;99073.80;;;5.31;85.55
69127;BME280;56688;50.234;19.292;2024-02-21T04:31:29;99067.53;;;5.30;85.07
69127;BME280;56688;50.234;19.292;2024-02-21T04:33:56;99065.22;;;5.29;85.36
69127;BME280;56688;50.234;19.292;2024-02-21T04:36:23;99068.76;;;5.25;85.24
69127;BME280;56688;50.234;19.292;2024-02-21T04:38:51;99065.70;;;5.22;85.25
69127;BME280;56688;50.234;19.292;2024-02-21T04:41:18;99066.55;;;5.20;85.56
69127;BME280;56688;50.234;19.292;2024-02-21T04:43:46;99061.14;;;5.21;85.77
69127;BME280;56688;50.234;19.292;2024-02-21T04:46:15;99058.52;;;5.21;85.79
69127;BME280;56688;50.234;19.292;2024-02-21T04:48:43;99058.69;;;5.19;85.77
69127;BME280;56688;50.234;19.292;2024-02-21T04:51:11;99054.13;;;5.17;85.76
69127;BME280;56688;50.234;19.292;2024-02-21T04:53:40;99055.42;;;5.15;85.68
69127;BME280;56688;50.234;19.292;2024-02-21T04:56:07;99054.70;;;5.12;85.82
69127;BME280;56688;50.234;19.292;2024-02-21T04:58:38;99056.97;;;5.15;86.12
69127;BME280;56688;50.234;19.292;2024-02-21T05:01:06;99060.42;;;5.17;86.41
69127;BME280;56688;50.234;19.292;2024-02-21T05:03:34;99057.33;;;5.20;85.82
69127;BME280;56688;50.234;19.292;2024-02-21T05:06:02;99052.77;;;5.24;86.30
69127;BME280;56688;50.234;19.292;2024-02-21T05:08:29;99045.20;;;5.22;86.08
69127;BME280;56688;50.234;19.292;2024-02-21T05:10:56;99047.38;;;5.17;86.14
69127;BME280;56688;50.234;19.292;2024-02-21T05:13:23;99044.99;;;5.15;86.02
69127;BME280;56688;50.234;19.292;2024-02-21T05:15:50;99041.20;;;5.13;86.01
69127;BME280;56688;50.234;19.292;2024-02-21T05:18:17;99035.39;;;5.13;85.89
69127;BME280;56688;50.234;19.292;2024-02-21T05:20:44;99036.77;;;5.11;86.13
69127;BME280;56688;50.234;19.292;2024-02-21T05:23:11;99028.88;;;5.07;86.01
69127;BME280;56688;50.234;19.292;2024-02-21T05:25:38;99028.14;;;5.03;85.87
69127;BME280;56688;50.234;19.292;2024-02-21T05:28:06;99025.11;;;4.98;85.82
69127;BME280;56688;50.234;19.292;2024-02-21T05:30:33;99027.45;;;4.94;85.74
69127;BME280;56688;50.234;19.292;2024-02-21T05:33:04;99033.55;;;4.91;85.62
69127;BME280;56688;50.234;19.292;2024-02-21T05:35:33;99029.52;;;4.87;86.18
69127;BME280;56688;50.234;19.292;2024-02-21T05:38:01;99023.36;;;4.87;85.85
69127;BME280;56688;50.234;19.292;2024-02-21T05:40:33;99026.09;;;4.86;85.88
69127;BME280;56688;50.234;19.292;2024-02-21T05:43:00;99032.88;;;4.83;85.95
69127;BME280;56688;50.234;19.292;2024-02-21T05:45:27;99029.10;;;4.80;85.91
69127;BME280;56688;50.234;19.292;2024-02-21T05:47:54;99022.91;;;4.78;85.89
69127;BME280;56688;50.234;19.292;2024-02-21T05:50:21;99024.11;;;4.76;86.22
69127;BME280;56688;50.234;19.292;2024-02-21T05:52:52;99019.46;;;4.75;86.30
69127;BME280;56688;50.234;19.292;2024-02-21T05:55:19;99019.39;;;4.74;86.50
69127;BME280;56688;50.234;19.292;2024-02-21T05:57:46;99018.52;;;4.73;86.67
69127;BME280;56688;50.234;19.292;2024-02-21T06:00:14;99020.22;;;4.74;86.70
69127;BME280;56688;50.234;19.292;2024-02-21T06:02:42;99024.66;;;4.76;86.74
69127;BME280;56688;50.234;19.292;2024-02-21T06:05:09;99019.79;;;4.78;86.89
69127;BME280;56688;50.234;19.292;2024-02-21T06:07:36;99022.04;;;4.80;86.94
69127;BME280;56688;50.234;19.292;2024-02-21T06:10:03;99017.17;;;4.83;87.22
69127;BME280;56688;50.234;19.292;2024-02-21T06:12:30;99016.26;;;4.85;86.86
69127;BME280;56688;50.234;19.292;2024-02-21T06:14:57;99014.70;;;4.88;87.17
69127;BME280;56688;50.234;19.292;2024-02-21T06:17:24;99016.52;;;4.93;86.92
69127;BME280;56688;50.234;19.292;2024-02-21T06:19:52;99015.96;;;5.00;87.00
69127;BME280;56688;50.234;19.292;2024-02-21T06:22:19;99016.60;;;5.04;87.08
69127;BME280;56688;50.234;19.292;2024-02-21T06:24:46;99021.45;;;5.09;86.73
69127;BME280;56688;50.234;19.292;2024-02-21T06:27:13;99018.84;;;5.15;86.75
69127;BME280;56688;50.234;19.292;2024-02-21T06:29:43;99016.81;;;5.21;86.39
69127;BME280;56688;50.234;19.292;2024-02-21T06:32:10;99021.42;;;5.30;86.64
69127;BME280;56688;50.234;19.292;2024-02-21T06:34:37;99022.16;;;5.40;86.17
69127;BME280;56688;50.234;19.292;2024-02-21T06:37:04;99023.14;;;5.48;86.22
69127;BME280;56688;50.234;19.292;2024-02-21T06:39:31;99019.23;;;5.52;85.52
69127;BME280;56688;50.234;19.292;2024-02-21T06:41:58;99018.45;;;5.60;85.53
69127;BME280;56688;50.234;19.292;2024-02-21T06:44:29;99017.59;;;5.70;85.28
69127;BME280;56688;50.234;19.292;2024-02-21T06:46:56;99019.51;;;5.81;85.14
69127;BME280;56688;50.234;19.292;2024-02-21T06:49:25;99016.80;;;5.97;84.10
69127;BME280;56688;50.234;19.292;2024-02-21T06:51:53;99013.50;;;6.15;83.53
69127;BME280;56688;50.234;19.292;2024-02-21T06:54:20;99010.06;;;6.21;82.55
69127;BME280;56688;50.234;19.292;2024-02-21T06:56:47;99013.81;;;6.20;81.85
69127;BME280;56688;50.234;19.292;2024-02-21T06:59:14;99012.27;;;6.20;81.67
69127;BME280;56688;50.234;19.292;2024-02-21T07:01:47;99013.56;;;6.18;81.10
69127;BME280;56688;50.234;19.292;2024-02-21T07:04:15;99008.92;;;6.14;80.80
69127;BME280;56688;50.234;19.292;2024-02-21T07:06:42;99013.70;;;6.09;80.81
69127;BME280;56688;50.234;19.292;2024-02-21T07:09:10;99014.17;;;6.02;80.70
69127;BME280;56688;50.234;19.292;2024-02-21T07:11:37;99015.08;;;5.98;81.12
69127;BME280;56688;50.234;19.292;2024-02-21T07:14:04;99016.64;;;5.96;81.33
69127;BME280;56688;50.234;19.292;2024-02-21T07:16:31;99019.81;;;5.95;81.30
69127;BME280;56688;50.234;19.292;2024-02-21T07:19:00;99015.32;;;5.92;81.37
69127;BME280;56688;50.234;19.292;2024-02-21T07:21:27;99014.36;;;5.93;81.54
69127;BME280;56688;50.234;19.292;2024-02-21T07:23:54;99015.01;;;5.97;81.34
69127;BME280;56688;50.234;19.292;2024-02-21T07:26:21;99015.78;;;6.00;81.54
69127;BME280;56688;50.234;19.292;2024-02-21T07:28:49;99014.94;;;6.01;81.31
69127;BME280;56688;50.234;19.292;2024-02-21T07:31:16;99013.59;;;6.06;81.61
69127;BME280;56688;50.234;19.292;2024-02-21T07:33:44;99012.36;;;6.11;81.18
69127;BME280;56688;50.234;19.292;2024-02-21T07:36:11;99013.87;;;6.18;81.20
69127;BME280;56688;50.234;19.292;2024-02-21T07:38:39;99013.11;;;6.24;80.98
69127;BME280;56688;50.234;19.292;2024-02-21T07:41:06;99010.16;;;6.23;80.45
69127;BME280;56688;50.234;19.292;2024-02-21T07:43:33;99005.81;;;6.21;80.31
69127;BME280;56688;50.234;19.292;2024-02-21T07:46:00;99002.44;;;6.21;80.25
69127;BME280;56688;50.234;19.292;2024-02-21T07:48:27;98999.88;;;6.20;80.23
69127;BME280;56688;50.234;19.292;2024-02-21T07:50:56;99000.67;;;6.23;80.09
69127;BME280;56688;50.234;19.292;2024-02-21T07:53:23;99000.69;;;6.26;80.09
69127;BME280;56688;50.234;19.292;2024-02-21T07:55:50;98998.37;;;6.28;79.68
69127;BME280;56688;50.234;19.292;2024-02-21T07:58:17;98996.26;;;6.26;79.66
69127;BME280;56688;50.234;19.292;2024-02-21T08:00:44;98994.04;;;6.29;79.70
69127;BME280;56688;50.234;19.292;2024-02-21T08:03:11;98990.15;;;6.35;80.08
69127;BME280;56688;50.234;19.292;2024-02-21T08:05:38;98986.71;;;6.46;79.84
69127;BME280;56688;50.234;19.292;2024-02-21T08:08:06;98986.02;;;6.60;79.41
69127;BME280;56688;50.234;19.292;2024-02-21T08:10:35;98982.62;;;6.79;79.07
69127;BME280;56688;50.234;19.292;2024-02-21T08:13:02;98976.02;;;7.13;78.80
69127;BME280;56688;50.234;19.292;2024-02-21T08:15:29;98973.17;;;7.48;77.12
69127;BME280;56688;50.234;19.292;2024-02-21T08:17:56;98965.85;;;7.82;76.11
69127;BME280;56688;50.234;19.292;2024-02-21T08:20:27;98964.33;;;8.09;74.40
69127;BME280;56688;50.234;19.292;2024-02-21T08:22:54;98957.95;;;8.23;74.29
69127;BME280;56688;50.234;19.292;2024-02-21T08:25:21;98963.77;;;8.36;73.35
69127;BME280;56688;50.234;19.292;2024-02-21T08:27:48;98961.60;;;8.37;72.70
69127;BME280;56688;50.234;19.292;2024-02-21T08:30:15;98960.16;;;8.40;72.16
69127;BME280;56688;50.234;19.292;2024-02-21T08:32:43;98957.52;;;8.53;72.27
69127;BME280;56688;50.234;19.292;2024-02-21T08:35:10;98949.79;;;8.78;71.40
69127;BME280;56688;50.234;19.292;2024-02-21T08:37:37;98942.77;;;9.10;70.13
69127;BME280;56688;50.234;19.292;2024-02-21T08:40:04;98939.98;;;9.38;68.87
69127;BME280;56688;50.234;19.292;2024-02-21T08:42:36;98932.17;;;9.66;68.33
69127;BME280;56688;50.234;19.292;2024-02-21T08:45:04;98932.02;;;10.06;68.52
69127;BME280;56688;50.234;19.292;2024-02-21T08:47:31;98932.25;;;10.46;65.80
69127;BME280;56688;50.234;19.292;2024-02-21T08:49:58;98934.92;;;10.75;64.67
69127;BME280;56688;50.234;19.292;2024-02-21T08:52:30;98938.55;;;10.98;63.92
69127;BME280;56688;50.234;19.292;2024-02-21T08:54:58;98935.05;;;11.00;62.81
69127;BME280;56688;50.234;19.292;2024-02-21T08:57:25;98937.20;;;11.03;63.03
69127;BME280;56688;50.234;19.292;2024-02-21T08:59:52;98938.10;;;11.12;62.40
69127;BME280;56688;50.234;19.292;2024-02-21T09:02:19;98934.27;;;11.14;62.24
69127;BME280;56688;50.234;19.292;2024-02-21T09:04:46;98936.72;;;11.13;61.55
69127;BME280;56688;50.234;19.292;2024-02-21T09:07:13;98930.16;;;11.08;61.64
69127;BME280;56688;50.234;19.292;2024-02-21T09:09:40;98928.61;;;10.96;62.14
69127;BME280;56688;50.234;19.292;2024-02-21T09:12:07;98926.57;;;10.84;62.56
69127;BME280;56688;50.234;19.292;2024-02-21T09:14:37;98925.75;;;10.73;62.47
69127;BME280;56688;50.234;19.292;2024-02-21T09:17:06;98920.67;;;10.65;62.38
69127;BME280;56688;50.234;19.292;2024-02-21T09:19:35;98919.93;;;10.65;62.82
69127;BME280;56688;50.234;19.292;2024-02-21T09:22:02;98919.39;;;10.75;62.87
69127;BME280;56688;50.234;19.292;2024-02-21T09:24:29;98917.66;;;11.09;63.01
69127;BME280;56688;50.234;19.292;2024-02-21T09:26:57;98916.95;;;11.31;61.68
69127;BME280;56688;50.234;19.292;2024-02-21T09:29:23;98920.94;;;11.30;61.39
69127;BME280;56688;50.234;19.292;2024-02-21T09:31:53;98923.76;;;11.35;60.65
69127;BME280;56688;50.234;19.292;2024-02-21T09:34:21;98924.81;;;11.37;60.51
69127;BME280;56688;50.234;19.292;2024-02-21T09:36:48;98924.55;;;11.23;60.93
69127;BME280;56688;50.234;19.292;2024-02-21T09:39:15;98922.86;;;11.07;61.34
69127;BME280;56688;50.234;19.292;2024-02-21T09:41:50;98921.77;;;11.01;61.74
69127;BME280;56688;50.234;19.292;2024-02-21T09:44:19;98916.34;;;11.03;61.54
69127;BME280;56688;50.234;19.292;2024-02-21T09:46:55;98923.50;;;11.10;61.65
69127;BME280;56688;50.234;19.292;2024-02-21T09:49:31;98922.56;;;11.24;61.12
69127;BME280;56688;50.234;19.292;2024-02-21T09:52:01;98922.39;;;11.45;60.95
69127;BME280;56688;50.234;19.292;2024-02-21T09:54:30;98922.52;;;11.57;61.08
69127;BME280;56688;50.234;19.292;2024-02-21T09:56:59;98920.23;;;11.73;60.76
69127;BME280;56688;50.234;19.292;2024-02-21T09:59:28;98918.71;;;11.80;60.30
69127;BME280;56688;50.234;19.292;2024-02-21T10:01:57;98919.52;;;11.75;59.32
69127;BME280;56688;50.234;19.292;2024-02-21T10:04:26;98916.16;;;11.68;58.77
69127;BME280;56688;50.234;19.292;2024-02-21T10:06:53;98918.32;;;11.65;59.54
69127;BME280;56688;50.234;19.292;2024-02-21T10:09:23;98921.16;;;11.68;59.43
69127;BME280;56688;50.234;19.292;2024-02-21T10:11:51;98912.62;;;11.88;60.02
69127;BME280;56688;50.234;19.292;2024-02-21T10:14:18;98906.90;;;12.08;58.97
69127;BME280;56688;50.234;19.292;2024-02-21T10:16:48;98907.90;;;12.19;58.99
69127;BME280;56688;50.234;19.292;2024-02-21T10:19:17;98906.63;;;12.23;56.72
69127;BME280;56688;50.234;19.292;2024-02-21T10:22:00;98901.77;;;12.12;57.28
69127;BME280;56688;50.234;19.292;2024-02-21T10:24:27;98903.42;;;12.03;57.19
69127;BME280;56688;50.234;19.292;2024-02-21T10:27:02;98908.29;;;11.81;57.32
69127;BME280;56688;50.234;19.292;2024-02-21T10:29:31;98905.27;;;11.57;58.14
69127;BME280;56688;50.234;19.292;2024-02-21T10:32:11;98906.92;;;11.40;59.01
69127;BME280;56688;50.234;19.292;2024-02-21T10:34:40;98905.61;;;11.27;58.76
69127;BME280;56688;50.234;19.292;2024-02-21T10:37:09;98907.91;;;11.08;59.52
69127;BME280;56688;50.234;19.292;2024-02-21T10:39:38;98903.55;;;10.91;59.96
69127;BME280;56688;50.234;19.292;2024-02-21T10:42:06;98898.26;;;10.76;60.21
69127;BME280;56688;50.234;19.292;2024-02-21T10:44:37;98895.63;;;10.64;60.71
69127;BME280;56688;50.234;19.292;2024-02-21T10:47:08;98888.09;;;10.52;61.56
69127;BME280;56688;50.234;19.292;2024-02-21T10:49:39;98885.30;;;10.47;62.25
69127;BME280;56688;50.234;19.292;2024-02-21T10:57:14;98875.63;;;10.68;62.85
69127;BME280;56688;50.234;19.292;2024-02-21T10:59:44;98867.17;;;10.89;62.54
69127;BME280;56688;50.234;19.292;2024-02-21T11:02:11;98860.55;;;11.10;60.97
69127;BME280;56688;50.234;19.292;2024-02-21T11:04:39;98854.73;;;11.28;61.33
69127;BME280;56688;50.234;19.292;2024-02-21T11:07:08;98850.40;;;11.40;59.78
69127;BME280;56688;50.234;19.292;2024-02-21T11:09:37;98849.86;;;11.46;59.61
69127;BME280;56688;50.234;19.292;2024-02-21T11:12:06;98847.43;;;11.48;58.97
69127;BME280;56688;50.234;19.292;2024-02-21T11:14:34;98849.48;;;11.39;59.04
69127;BME280;56688;50.234;19.292;2024-02-21T11:17:15;98850.02;;;11.23;58.94
69127;BME280;56688;50.234;19.292;2024-02-21T11:19:44;98845.96;;;11.03;58.45
69127;BME280;56688;50.234;19.292;2024-02-21T11:22:16;98843.40;;;10.92;59.55
69127;BME280;56688;50.234;19.292;2024-02-21T11:24:44;98844.36;;;10.88;59.88
69127;BME280;56688;50.234;19.292;2024-02-21T11:29:44;98837.14;;;10.78;59.66
69127;BME280;56688;50.234;19.292;2024-02-21T11:32:14;98832.86;;;10.71;59.26
69127;BME280;56688;50.234;19.292;2024-02-21T11:34:54;98833.92;;;10.60;59.35
69127;BME280;56688;50.234;19.292;2024-02-21T11:37:24;98829.73;;;10.45;59.70
69127;BME280;56688;50.234;19.292;2024-02-21T11:39:53;98822.17;;;10.33;59.66
69127;BME280;56688;50.234;19.292;2024-02-21T11:42:20;98821.05;;;10.22;60.19
69127;BME280;56688;50.234;19.292;2024-02-21T11:44:48;98812.59;;;10.14;60.89
69127;BME280;56688;50.234;19.292;2024-02-21T11:47:15;98811.03;;;10.12;61.44
69127;BME280;56688;50.234;19.292;2024-02-21T11:49:46;98805.94;;;10.10;61.21
69127;BME280;56688;50.234;19.292;2024-02-21T11:52:13;98806.05;;;10.03;61.51
69127;BME280;56688;50.234;19.292;2024-02-21T11:54:42;98804.92;;;9.97;61.79
69127;BME280;56688;50.234;19.292;2024-02-21T11:57:10;98809.13;;;9.96;61.67
69127;BME280;56688;50.234;19.292;2024-02-21T11:59:40;98808.02;;;9.93;61.10
69127;BME280;56688;50.234;19.292;2024-02-21T12:02:07;98804.54;;;9.94;62.02
69127;BME280;56688;50.234;19.292;2024-02-21T12:04:35;98801.96;;;9.98;61.43
69127;BME280;56688;50.234;19.292;2024-02-21T12:07:03;98802.92;;;9.97;61.32
69127;BME280;56688;50.234;19.292;2024-02-21T12:09:31;98802.31;;;9.93;61.17
69127;BME280;56688;50.234;19.292;2024-02-21T12:12:02;98800.04;;;9.90;61.12
69127;BME280;56688;50.234;19.292;2024-02-21T12:14:31;98800.02;;;9.84;61.18
69127;BME280;56688;50.234;19.292;2024-02-21T12:17:00;98796.12;;;9.76;61.59
69127;BME280;56688;50.234;19.292;2024-02-21T12:19:30;98796.38;;;9.71;61.80
69127;BME280;56688;50.234;19.292;2024-02-21T12:22:00;98794.84;;;9.64;62.25
69127;BME280;56688;50.234;19.292;2024-02-21T12:24:28;98795.38;;;9.60;62.40
69127;BME280;56688;50.234;19.292;2024-02-21T12:26:56;98792.50;;;9.54;62.63
69127;BME280;56688;50.234;19.292;2024-02-21T12:29:25;98793.66;;;9.52;63.45
69127;BME280;56688;50.234;19.292;2024-02-21T12:31:53;98789.87;;;9.47;63.97
69127;BME280;56688;50.234;19.292;2024-02-21T12:34:23;98786.26;;;9.41;64.74
69127;BME280;56688;50.234;19.292;2024-02-21T12:37:05;98778.02;;;9.35;64.86
69127;BME280;56688;50.234;19.292;2024-02-21T12:39:32;98778.13;;;9.30;65.34
69127;BME280;56688;50.234;19.292;2024-02-21T12:41:59;98774.30;;;9.25;66.23
69127;BME280;56688;50.234;19.292;2024-02-21T12:44:26;98772.59;;;9.19;66.26
69127;BME280;56688;50.234;19.292;2024-02-21T12:46:54;98769.27;;;9.15;66.90
69127;BME280;56688;50.234;19.292;2024-02-21T12:49:22;98770.73;;;9.09;67.36
69127;BME280;56688;50.234;19.292;2024-02-21T12:51:49;98770.69;;;9.01;68.52
69127;BME280;56688;50.234;19.292;2024-02-21T12:54:16;98771.86;;;8.91;69.21
69127;BME280;56688;50.234;19.292;2024-02-21T12:56:43;98771.05;;;8.80;69.76
69127;BME280;56688;50.234;19.292;2024-02-21T12:59:10;98764.21;;;8.70;69.84
69127;BME280;56688;50.234;19.292;2024-02-21T13:01:37;98769.91;;;8.63;70.57
69127;BME280;56688;50.234;19.292;2024-02-21T13:04:05;98770.14;;;8.60;71.79
69127;BME280;56688;50.234;19.292;2024-02-21T13:06:32;98767.77;;;8.57;72.32
69127;BME280;56688;50.234;19.292;2024-02-21T13:09:00;98765.06;;;8.56;72.85